weather.gov     
National Weather Service

Terminal Aerodrome Forecast
NWS Homepage
This page is being discontinued on March 12, 2014.
The same data is available at this site. Please update your bookmarks.
Thank you, and we apologize for the inconvenience.
Please send an email to SR-SRH.Webmaster@noaa.gov with any concerns.


Current Version
Previous Version:    01  02  03  04  05  06  07  08  09  10  11  12  13  14  15  16  17  18  19  20  21  22  23  24  25  26  27  28  29  30  
   31  32  33  34  35  
[Printable]
480
FTUS46 KPQR 231847 AAB
TAFAST
TAF AMD
KAST 231847Z 2319/2418 23016G27KT P6SM VCTS SCT025 OVC040CB
      TEMPO 2319/2320 22023G38KT 4SM TSRA BKN025 BKN040CB
     FM232000 25010G18KT 6SM -SHRA BR SCT025 BKN050
     FM240100 27005KT P6SM VCSH FEW015 SCT030
     FM240900 13003KT 5SM BR FEW002 SCT030=




480
FTUS46 KPQR 231847 AAB
TAFAST
TAF AMD
KAST 231847Z 2319/2418 23016G27KT P6SM VCTS SCT025 OVC040CB
      TEMPO 2319/2320 22023G38KT 4SM TSRA BKN025 BKN040CB
     FM232000 25010G18KT 6SM -SHRA BR SCT025 BKN050
     FM240100 27005KT P6SM VCSH FEW015 SCT030
     FM240900 13003KT 5SM BR FEW002 SCT030=


U.S. Dept. of Commerce
NOAA National Weather Service
1325 East West Highway
Silver Spring, MD 20910
E-mail: w-nws.webmaster@noaa.gov
Page last modified: May 16, 2007
NATIONAL WEATHER SERVICE: for Safety, for Work, for Fun - FOR LIFE